Time;durP1;ratioP1;P1;durP2;ratioP2;P2;SDS_P1;SDS_P2;PMS_P1;PMS_P2;Temp;Humidity;BMP_temperature;BMP_pressure;BME280_temperature;BME280_humidity;BME280_pressure;Samples;Min_cycle;Max_cycle;Signal;HPM_P1;HPM_P2
2022/09/27 00:00:04;;;;;;;1.60;1.50;;;14.80;99.90;;;;;;5068218;28;20232;-76
2022/09/27 00:02:31;;;;;;;1.63;1.52;;;14.80;99.90;;;;;;5073254;28;20216;-76
2022/09/27 00:04:59;;;;;;;1.70;1.60;;;14.80;99.90;;;;;;5072224;28;20225;-75
2022/09/27 00:07:26;;;;;;;1.65;1.55;;;14.80;99.90;;;;;;5072531;28;20199;-76
2022/09/27 00:09:53;;;;;;;1.65;1.55;;;14.80;99.90;;;;;;5072908;28;20221;-75
2022/09/27 00:12:20;;;;;;;1.60;1.50;;;14.80;99.90;;;;;;5071272;28;20204;-75
2022/09/27 00:14:47;;;;;;;1.83;1.73;;;14.80;99.90;;;;;;5073063;28;20605;-76
2022/09/27 00:17:15;;;;;;;1.70;1.60;;;14.70;99.90;;;;;;5072792;28;20657;-76
2022/09/27 00:19:42;;;;;;;2.28;2.08;;;14.70;99.90;;;;;;5073164;28;20218;-76
2022/09/27 00:22:10;;;;;;;2.55;2.35;;;14.70;99.90;;;;;;5073721;28;20214;-76
2022/09/27 00:24:38;;;;;;;2.20;2.10;;;14.70;99.90;;;;;;5072340;28;20229;-76
2022/09/27 00:27:05;;;;;;;2.40;2.20;;;14.70;99.90;;;;;;5072562;28;20264;-76
2022/09/27 00:29:32;;;;;;;2.40;2.25;;;14.70;99.90;;;;;;5072924;28;20220;-76
2022/09/27 00:31:59;;;;;;;2.40;2.20;;;14.80;99.90;;;;;;5074778;28;20201;-75
2022/09/27 00:34:26;;;;;;;2.53;2.33;;;14.80;99.90;;;;;;5071946;28;20225;-76
2022/09/27 00:36:54;;;;;;;2.47;2.28;;;14.80;99.90;;;;;;5072465;28;20202;-76
2022/09/27 00:39:22;;;;;;;2.72;2.53;;;14.80;99.90;;;;;;5070408;28;20210;-76
2022/09/27 00:41:50;;;;;;;2.15;2.05;;;14.80;99.90;;;;;;5069794;28;20214;-76
2022/09/27 00:45:03;;;;;;;2.40;2.20;;;14.80;99.90;;;;;;5070135;28;20723;-76
2022/09/27 00:47:39;;;;;;;2.90;2.20;;;14.70;99.90;;;;;;5071515;28;20194;-76
2022/09/27 00:50:21;;;;;;;2.38;2.17;;;14.70;99.90;;;;;;5072894;28;20226;-76
2022/09/27 00:52:56;;;;;;;2.67;2.22;;;14.70;99.90;;;;;;5074955;28;20261;-76
2022/09/27 00:55:29;;;;;;;1.90;1.80;;;14.60;99.90;;;;;;5074693;28;20201;-76
2022/09/27 00:57:57;;;;;;;2.40;2.20;;;14.60;99.90;;;;;;5075207;28;20543;-76
2022/09/27 01:00:24;;;;;;;2.30;2.20;;;14.50;99.90;;;;;;5074380;28;20777;-76
2022/09/27 01:02:55;;;;;;;1.75;1.65;;;14.50;99.90;;;;;;5073009;28;20226;-77
2022/09/27 01:05:25;;;;;;;2.25;2.15;;;14.50;99.90;;;;;;5077321;28;20205;-76
2022/09/27 01:07:55;;;;;;;2.65;1.83;;;14.50;99.90;;;;;;5076042;28;20194;-76
2022/09/27 01:10:25;;;;;;;2.08;1.98;;;14.50;99.90;;;;;;5075546;28;20623;-76
2022/09/27 01:13:00;;;;;;;2.45;2.25;;;14.40;99.90;;;;;;5075372;28;20190;-75
2022/09/27 01:15:34;;;;;;;2.88;2.20;;;14.40;99.90;;;;;;5076253;28;20200;-76
2022/09/27 01:18:17;;;;;;;2.75;2.53;;;14.40;99.90;;;;;;5077308;28;20224;-76
2022/09/27 01:21:24;;;;;;;2.67;2.47;;;14.30;99.90;;;;;;5078623;28;20267;-76
2022/09/27 01:24:13;;;;;;;2.78;2.30;;;14.30;99.90;;;;;;5076916;28;20723;-76
2022/09/27 01:27:05;;;;;;;2.35;1.88;;;14.30;99.90;;;;;;5076709;28;20198;-76
2022/09/27 01:29:42;;;;;;;2.15;1.95;;;14.30;99.90;;;;;;5079625;28;20222;-76
2022/09/27 01:32:19;;;;;;;2.78;2.35;;;14.30;99.90;;;;;;5080202;28;20194;-77
2022/09/27 01:34:51;;;;;;;2.63;2.42;;;14.30;99.90;;;;;;5072672;28;20237;-76
2022/09/27 01:37:25;;;;;;;2.00;1.90;;;14.20;99.90;;;;;;5073094;28;20197;-75
2022/09/27 01:40:00;;;;;;;2.08;1.98;;;14.20;99.90;;;;;;5070768;28;20218;-75
2022/09/27 01:42:32;;;;;;;2.45;2.35;;;14.20;99.90;;;;;;5072122;28;20213;-75
2022/09/27 01:45:03;;;;;;;2.63;2.42;;;14.20;99.90;;;;;;5072432;28;20583;-75
2022/09/27 01:47:38;;;;;;;2.75;2.53;;;14.10;99.90;;;;;;5075582;28;20194;-75
2022/09/27 01:50:09;;;;;;;2.55;2.35;;;14.10;99.90;;;;;;5073811;28;20252;-76
2022/09/27 01:52:41;;;;;;;3.00;2.80;;;14.10;99.90;;;;;;5071178;28;20198;-75
2022/09/27 01:55:11;;;;;;;2.80;2.60;;;14.10;99.90;;;;;;5074270;28;20213;-75
2022/09/27 01:57:42;;;;;;;2.65;2.45;;;14.00;99.90;;;;;;5072832;28;20252;-75
2022/09/27 02:00:11;;;;;;;2.33;2.22;;;14.00;99.90;;;;;;5073651;28;20605;-76
2022/09/27 02:02:44;;;;;;;2.47;2.28;;;14.10;99.90;;;;;;5076211;28;20226;-76
2022/09/27 02:05:16;;;;;;;2.40;2.25;;;14.10;99.90;;;;;;5077942;28;20676;-76
2022/09/27 02:07:49;;;;;;;2.60;2.40;;;14.10;99.90;;;;;;5076299;28;20711;-76
2022/09/27 02:10:21;;;;;;;2.53;2.33;;;14.10;99.90;;;;;;5076433;28;20214;-76
2022/09/27 02:12:56;;;;;;;2.53;2.33;;;14.10;99.90;;;;;;5078460;28;20194;-76
2022/09/27 02:15:25;;;;;;;1.98;1.80;;;14.10;99.90;;;;;;5074356;28;20198;-76
2022/09/27 02:17:58;;;;;;;2.10;2.00;;;14.00;99.90;;;;;;5075899;28;20205;-75
2022/09/27 02:20:31;;;;;;;2.10;2.00;;;14.00;99.90;;;;;;5075023;28;20218;-75
2022/09/27 02:23:09;;;;;;;2.22;2.13;;;14.00;99.90;;;;;;5075993;28;20695;-76
2022/09/27 02:25:42;;;;;;;2.00;1.90;;;14.00;99.90;;;;;;5075731;28;20210;-76
2022/09/27 02:28:21;;;;;;;2.50;2.30;;;14.00;99.90;;;;;;5074724;28;20214;-76
2022/09/27 02:30:48;;;;;;;2.00;1.90;;;14.00;99.90;;;;;;5075456;28;20218;-75
2022/09/27 02:33:19;;;;;;;3.25;2.97;;;14.00;99.90;;;;;;5075175;28;20525;-76
2022/09/27 02:35:46;;;;;;;3.70;3.42;;;13.90;99.90;;;;;;5077541;28;20277;-76
2022/09/27 02:38:13;;;;;;;4.20;3.67;;;13.90;99.90;;;;;;5075688;28;20609;-76
2022/09/27 02:40:44;;;;;;;2.85;2.65;;;13.80;99.90;;;;;;5075094;28;20536;-76
2022/09/27 02:43:13;;;;;;;3.08;2.88;;;13.80;99.90;;;;;;5075571;28;20221;-76
2022/09/27 02:45:49;;;;;;;3.22;3.00;;;13.80;99.90;;;;;;5073906;28;20201;-76
2022/09/27 02:48:26;;;;;;;3.25;3.00;;;13.80;99.90;;;;;;5075130;28;20217;-75
2022/09/27 02:51:09;;;;;;;3.45;2.28;;;13.80;99.90;;;;;;5075005;28;20220;-75
2022/09/27 02:53:50;;;;;;;2.92;2.72;;;13.80;99.90;;;;;;5072922;28;20221;-76
2022/09/27 02:56:26;;;;;;;3.00;2.80;;;13.80;99.90;;;;;;5074629;28;20210;-76
2022/09/27 02:59:06;;;;;;;3.47;3.17;;;13.70;99.90;;;;;;5073116;28;20275;-76
2022/09/27 03:01:40;;;;;;;3.13;2.90;;;13.70;99.90;;;;;;5076404;28;20182;-76
2022/09/27 03:04:15;;;;;;;3.00;2.80;;;13.70;99.90;;;;;;5073761;28;20218;-76
2022/09/27 03:06:46;;;;;;;3.03;2.83;;;13.70;99.90;;;;;;5070609;28;20197;-76
2022/09/27 03:09:20;;;;;;;3.00;2.70;;;13.60;99.90;;;;;;5071170;28;20218;-76
2022/09/27 03:11:47;;;;;;;2.90;2.70;;;13.50;99.90;;;;;;5072919;28;20194;-76
2022/09/27 03:14:15;;;;;;;2.90;2.70;;;13.30;99.90;;;;;;5069649;28;20263;-76
2022/09/27 03:16:42;;;;;;;2.70;2.60;;;13.20;99.90;;;;;;5071858;28;20202;-75
2022/09/27 03:19:10;;;;;;;2.40;2.30;;;13.10;99.90;;;;;;5068663;28;20222;-74
2022/09/27 03:21:38;;;;;;;2.70;2.50;;;13.10;99.90;;;;;;5071742;28;20569;-74
2022/09/27 03:24:05;;;;;;;3.00;2.80;;;13.10;99.90;;;;;;5071607;28;20217;-76
2022/09/27 03:26:32;;;;;;;3.22;2.97;;;13.10;99.90;;;;;;5070496;28;20668;-74
2022/09/27 03:29:00;;;;;;;2.85;2.65;;;13.10;99.90;;;;;;5070179;28;20242;-75
2022/09/27 03:31:27;;;;;;;3.30;3.00;;;13.10;99.90;;;;;;5073855;28;20670;-76
2022/09/27 03:33:54;;;;;;;3.13;2.92;;;13.10;99.90;;;;;;5071062;28;20227;-74
2022/09/27 03:36:23;;;;;;;2.97;2.78;;;13.10;99.90;;;;;;5071352;28;20200;-75
2022/09/27 03:38:50;;;;;;;3.05;2.85;;;13.20;99.90;;;;;;5068885;28;20214;-75
2022/09/27 03:41:17;;;;;;;3.10;2.90;;;13.20;99.90;;;;;;5073586;28;20769;-76
2022/09/27 03:43:44;;;;;;;3.20;3.00;;;13.20;99.90;;;;;;5073049;28;20256;-74
2022/09/27 03:46:11;;;;;;;2.95;2.75;;;13.20;99.90;;;;;;5072872;28;20624;-76
2022/09/27 03:48:38;;;;;;;2.97;2.78;;;13.10;99.90;;;;;;5071959;28;20519;-76
2022/09/27 03:51:05;;;;;;;2.50;2.40;;;13.10;99.90;;;;;;5072203;28;20213;-76
2022/09/27 03:53:34;;;;;;;3.10;2.90;;;13.10;99.90;;;;;;5076696;28;20229;-74
2022/09/27 03:56:02;;;;;;;2.78;2.58;;;13.00;99.90;;;;;;5076433;28;20589;-74
2022/09/27 03:58:29;;;;;;;2.92;2.72;;;13.10;99.90;;;;;;5076128;28;20230;-76
2022/09/27 04:00:56;;;;;;;3.10;2.88;;;13.10;99.90;;;;;;5075819;28;20221;-76
2022/09/27 04:03:25;;;;;;;3.13;2.78;;;13.10;99.90;;;;;;5076257;28;20218;-76
2022/09/27 04:05:53;;;;;;;2.90;2.70;;;13.10;99.90;;;;;;5075963;28;20308;-77
2022/09/27 04:08:21;;;;;;;3.05;2.85;;;13.10;99.90;;;;;;5074732;28;20221;-76
2022/09/27 04:10:49;;;;;;;3.00;2.80;;;13.10;99.90;;;;;;5077336;28;20297;-76
2022/09/27 04:13:16;;;;;;;3.30;3.00;;;13.10;99.90;;;;;;5076484;28;20236;-77
2022/09/27 04:15:43;;;;;;;3.10;2.90;;;13.10;99.90;;;;;;5075990;28;20399;-77
2022/09/27 04:18:10;;;;;;;3.22;3.03;;;13.10;99.90;;;;;;5073994;28;20267;-77
2022/09/27 04:20:38;;;;;;;3.10;2.90;;;13.10;99.90;;;;;;5076405;28;20726;-76
2022/09/27 04:23:05;;;;;;;2.88;2.67;;;13.10;99.90;;;;;;5074460;28;20225;-77
2022/09/27 04:25:32;;;;;;;3.03;2.83;;;13.10;99.90;;;;;;5080370;28;20198;-76
2022/09/27 04:28:01;;;;;;;3.65;3.00;;;13.20;99.90;;;;;;5079409;28;20298;-76
2022/09/27 04:30:29;;;;;;;3.05;2.85;;;13.20;99.90;;;;;;5080037;28;20218;-74
2022/09/27 04:32:56;;;;;;;3.88;2.92;;;13.20;99.90;;;;;;5079891;28;20194;-76
2022/09/27 04:38:08;;;;;;;3.20;3.00;;;13.20;99.90;;;;;;5079667;28;20244;-77
2022/09/27 04:40:36;;;;;;;3.30;3.10;;;13.20;99.90;;;;;;5079757;28;20293;-76
2022/09/27 04:43:04;;;;;;;3.05;2.85;;;13.20;99.90;;;;;;5079732;28;20309;-76
2022/09/27 04:45:32;;;;;;;2.78;2.58;;;13.20;99.90;;;;;;5080828;28;20198;-76
2022/09/27 04:47:59;;;;;;;2.75;2.55;;;13.20;99.90;;;;;;5079642;28;20312;-74
2022/09/27 04:50:26;;;;;;;3.65;3.35;;;13.20;99.90;;;;;;5080880;28;20222;-77
2022/09/27 04:52:54;;;;;;;3.50;3.20;;;13.20;99.90;;;;;;5079511;28;20309;-74
2022/09/27 04:55:22;;;;;;;2.97;2.78;;;13.20;99.90;;;;;;5079244;28;20202;-74
2022/09/27 04:57:50;;;;;;;3.15;2.95;;;13.20;99.90;;;;;;5073555;28;20569;-75
2022/09/27 05:00:18;;;;;;;3.38;3.08;;;13.20;99.90;;;;;;5074736;28;20225;-75
2022/09/27 05:02:47;;;;;;;3.00;2.80;;;13.20;99.90;;;;;;5070104;28;20218;-74
2022/09/27 05:05:14;;;;;;;3.22;2.92;;;13.20;99.90;;;;;;5072594;28;20198;-74
2022/09/27 05:07:41;;;;;;;2.97;2.78;;;13.20;99.90;;;;;;5072570;28;20205;-74
2022/09/27 05:10:09;;;;;;;3.20;3.00;;;13.20;99.90;;;;;;5071981;28;20217;-74
2022/09/27 05:12:37;;;;;;;3.00;2.80;;;13.20;99.90;;;;;;5073948;28;20667;-76
2022/09/27 05:15:05;;;;;;;3.05;2.85;;;13.20;99.90;;;;;;5073193;28;20224;-77
2022/09/27 05:17:33;;;;;;;3.47;3.17;;;13.20;99.90;;;;;;5074167;28;20206;-76
2022/09/27 05:20:00;;;;;;;2.95;2.75;;;13.20;99.90;;;;;;5073527;28;20222;-76
2022/09/27 05:22:27;;;;;;;2.90;2.70;;;13.20;99.90;;;;;;5073197;28;20221;-75
2022/09/27 05:24:55;;;;;;;3.25;3.05;;;13.20;99.90;;;;;;5073819;28;20221;-75
2022/09/27 05:27:22;;;;;;;3.10;2.90;;;13.30;99.90;;;;;;5074821;28;20671;-75
2022/09/27 05:29:49;;;;;;;3.40;3.20;;;13.30;99.90;;;;;;5073539;28;20222;-76
2022/09/27 05:32:16;;;;;;;2.83;2.63;;;13.30;99.90;;;;;;5076855;28;20592;-76
2022/09/27 05:34:45;;;;;;;3.42;3.22;;;13.20;99.90;;;;;;5073808;28;20222;-76
2022/09/27 05:37:13;;;;;;;4.65;3.83;;;13.20;99.90;;;;;;5069688;28;21220;-76
2022/09/27 05:39:40;;;;;;;3.97;3.65;;;13.20;99.90;;;;;;5074388;28;20299;-76
2022/09/27 05:42:09;;;;;;;4.05;3.65;;;13.20;99.90;;;;;;5074322;28;20221;-76
2022/09/27 05:44:37;;;;;;;4.20;3.70;;;13.10;99.90;;;;;;5070634;28;20321;-76
2022/09/27 05:47:04;;;;;;;3.53;3.22;;;13.10;99.90;;;;;;5075604;28;20291;-74
2022/09/27 05:49:31;;;;;;;3.88;3.58;;;13.10;99.90;;;;;;5077093;28;20237;-76
2022/09/27 05:52:01;;;;;;;3.53;3.22;;;13.10;99.90;;;;;;5074271;28;20207;-75
2022/09/27 05:54:28;;;;;;;4.07;3.25;;;13.10;99.90;;;;;;5071113;28;20218;-76
2022/09/27 05:56:57;;;;;;;3.58;3.28;;;13.20;99.90;;;;;;5087981;28;20198;-75
2022/09/27 05:59:25;;;;;;;2.92;2.72;;;13.20;99.90;;;;;;5070744;28;20279;-75
2022/09/27 06:01:52;;;;;;;2.90;2.70;;;13.20;99.90;;;;;;5071488;28;20731;-75
2022/09/27 06:04:20;;;;;;;3.08;2.88;;;13.20;99.90;;;;;;5072463;28;20222;-76
2022/09/27 06:06:47;;;;;;;3.75;3.45;;;13.20;99.90;;;;;;5073092;28;20195;-76
2022/09/27 06:09:17;;;;;;;3.83;3.53;;;13.20;99.90;;;;;;5070208;28;20252;-75
2022/09/27 06:11:45;;;;;;;4.45;3.35;;;13.20;99.90;;;;;;5074531;28;20229;-76
2022/09/27 06:14:12;;;;;;;4.05;3.25;;;13.10;99.90;;;;;;5075190;28;20217;-76
2022/09/27 06:16:39;;;;;;;2.90;2.70;;;13.10;99.90;;;;;;5076168;28;20194;-76
2022/09/27 06:19:07;;;;;;;2.60;2.40;;;13.10;99.90;;;;;;5075132;28;21567;-75
2022/09/27 06:21:34;;;;;;;3.15;2.95;;;13.10;99.90;;;;;;5072979;28;20907;-76
2022/09/27 06:24:02;;;;;;;2.88;2.67;;;13.20;99.90;;;;;;5074137;28;20218;-76
2022/09/27 06:26:30;;;;;;;3.60;3.35;;;13.30;99.90;;;;;;5076510;28;20198;-76
2022/09/27 06:28:57;;;;;;;3.08;2.88;;;13.40;99.90;;;;;;5075872;28;20355;-76
2022/09/27 06:31:24;;;;;;;3.30;3.05;;;13.40;99.90;;;;;;5075697;28;20304;-75
2022/09/27 06:33:52;;;;;;;4.13;3.83;;;13.40;99.90;;;;;;5076628;28;20222;-76
2022/09/27 06:36:19;;;;;;;4.05;3.65;;;13.40;99.90;;;;;;5075964;28;20655;-76
2022/09/27 06:38:47;;;;;;;3.90;3.60;;;13.40;99.90;;;;;;5069320;28;20465;-76
2022/09/27 06:41:15;;;;;;;3.97;3.67;;;13.40;99.90;;;;;;5074102;28;20218;-75
2022/09/27 06:43:44;;;;;;;4.25;3.85;;;13.30;99.90;;;;;;5074065;28;20225;-75
2022/09/27 06:46:11;;;;;;;4.07;3.78;;;13.30;99.90;;;;;;5070445;28;20202;-75
2022/09/27 06:48:38;;;;;;;3.70;3.40;;;13.30;99.90;;;;;;5073181;28;20632;-76
2022/09/27 06:51:06;;;;;;;3.70;3.40;;;13.40;99.90;;;;;;5071842;28;20221;-77
2022/09/27 06:53:33;;;;;;;3.47;3.17;;;13.40;99.90;;;;;;5087701;28;20217;-77
2022/09/27 06:56:01;;;;;;;3.58;3.38;;;13.50;99.90;;;;;;5075207;28;20483;-76
2022/09/27 07:01:29;;;;;;;3.10;2.90;;;13.70;99.90;;;;;;5023786;28;20246;-76
2022/09/27 07:03:57;;;;;;;3.20;3.00;;;13.80;99.90;;;;;;5028026;28;20226;-78
2022/09/27 07:06:25;;;;;;;3.40;3.10;;;13.90;99.90;;;;;;5046966;28;20213;-77
2022/09/27 07:08:53;;;;;;;3.55;3.25;;;13.90;99.90;;;;;;5072435;28;20245;-77
2022/09/27 07:11:22;;;;;;;3.03;2.83;;;14.00;99.90;;;;;;5071701;28;20214;-77
2022/09/27 07:13:50;;;;;;;3.78;3.47;;;14.00;99.90;;;;;;5072178;28;20728;-76
2022/09/27 07:16:18;;;;;;;3.38;3.17;;;14.10;99.90;;;;;;5065721;28;20191;-77
2022/09/27 07:18:49;;;;;;;3.85;3.55;;;14.10;99.90;;;;;;5064525;28;20218;-76
2022/09/27 07:21:16;;;;;;;3.60;3.40;;;14.10;99.90;;;;;;5067790;28;20211;-77
2022/09/27 07:23:43;;;;;;;3.92;3.63;;;14.00;99.90;;;;;;5062887;28;20225;-76
2022/09/27 07:26:11;;;;;;;3.97;3.67;;;14.00;99.90;;;;;;5071945;28;20209;-76
2022/09/27 07:28:40;;;;;;;3.88;3.58;;;14.00;99.90;;;;;;5064234;28;20218;-76
2022/09/27 07:31:08;;;;;;;4.47;4.18;;;13.90;99.90;;;;;;5066716;28;20226;-77
2022/09/27 07:33:35;;;;;;;5.38;4.10;;;13.90;99.90;;;;;;5063458;28;20217;-77
2022/09/27 07:36:09;;;;;;;4.43;3.85;;;13.80;99.90;;;;;;5068381;28;20205;-76
2022/09/27 07:38:36;;;;;;;3.97;3.67;;;13.70;99.90;;;;;;5063259;28;20225;-77
2022/09/27 07:41:07;;;;;;;4.10;3.58;;;13.60;99.90;;;;;;5068474;28;20255;-76
2022/09/27 07:43:34;;;;;;;5.72;3.80;;;13.60;99.90;;;;;;5060405;28;20222;-76
2022/09/27 07:46:01;;;;;;;4.15;3.78;;;13.60;99.90;;;;;;5063413;28;20237;-76
2022/09/27 07:48:29;;;;;;;3.40;3.20;;;13.50;99.90;;;;;;5071664;28;20236;-76
2022/09/27 07:50:56;;;;;;;4.00;3.70;;;13.50;99.90;;;;;;5075263;28;20210;-76
2022/09/27 07:53:24;;;;;;;3.55;3.35;;;13.60;99.90;;;;;;5060678;28;20240;-76
2022/09/27 07:55:53;;;;;;;4.40;4.10;;;13.60;99.90;;;;;;5060794;28;20198;-76
2022/09/27 07:58:20;;;;;;;3.88;3.58;;;13.60;99.90;;;;;;5060464;28;20218;-76
2022/09/27 08:00:48;;;;;;;4.07;3.75;;;13.60;99.90;;;;;;5059552;28;20310;-76
2022/09/27 08:03:16;;;;;;;4.57;4.18;;;13.60;99.90;;;;;;5064746;28;20696;-76
2022/09/27 08:05:44;;;;;;;3.88;3.58;;;13.60;99.90;;;;;;5067026;28;20653;-76
2022/09/27 08:08:11;;;;;;;4.10;3.80;;;13.70;99.90;;;;;;5063792;28;20210;-77
2022/09/27 08:10:45;;;;;;;4.35;4.05;;;13.60;99.90;;;;;;5068440;28;20221;-76
2022/09/27 08:13:13;;;;;;;4.97;4.53;;;13.70;99.90;;;;;;5069862;28;20840;-76
2022/09/27 08:15:40;;;;;;;3.70;3.40;;;13.70;99.90;;;;;;5069794;28;20672;-76
2022/09/27 08:18:08;;;;;;;3.58;3.28;;;13.80;99.90;;;;;;5068381;28;20222;-76
2022/09/27 08:20:35;;;;;;;3.35;3.05;;;13.90;99.90;;;;;;5067284;28;20249;-77
2022/09/27 08:23:04;;;;;;;3.13;2.92;;;14.10;99.90;;;;;;5063954;28;20248;-78
2022/09/27 08:25:31;;;;;;;3.70;2.80;;;14.30;99.90;;;;;;5059790;28;20202;-76
2022/09/27 08:28:03;;;;;;;3.10;2.80;;;14.40;99.90;;;;;;5059054;28;20202;-76
2022/09/27 08:30:31;;;;;;;4.57;3.33;;;14.50;99.90;;;;;;5057847;28;20227;-75
2022/09/27 08:33:01;;;;;;;5.20;2.97;;;14.60;99.90;;;;;;5061594;28;20281;-76
2022/09/27 08:35:29;;;;;;;2.55;2.35;;;14.60;99.90;;;;;;5060912;28;20405;-76
2022/09/27 08:37:57;;;;;;;3.38;2.90;;;14.50;99.90;;;;;;5059318;28;20201;-78
2022/09/27 08:40:37;;;;;;;3.85;3.38;;;14.50;99.90;;;;;;5056628;28;20218;-76
2022/09/27 08:43:16;;;;;;;3.10;2.80;;;14.30;99.90;;;;;;5060053;28;20224;-77
2022/09/27 08:45:58;;;;;;;3.33;2.70;;;14.10;99.90;;;;;;5074688;28;20190;-77
2022/09/27 08:48:28;;;;;;;2.63;2.42;;;14.00;99.90;;;;;;5058213;28;20222;-76
2022/09/27 08:50:55;;;;;;;2.45;2.30;;;14.00;99.90;;;;;;5057808;28;20222;-75
2022/09/27 08:53:28;;;;;;;2.40;2.20;;;14.00;99.90;;;;;;5057442;28;20364;-75
2022/09/27 08:55:56;;;;;;;2.15;1.90;;;14.10;99.90;;;;;;5062771;28;20194;-75
2022/09/27 08:58:27;;;;;;;1.60;1.50;;;14.00;99.90;;;;;;5063281;28;20226;-77
2022/09/27 09:00:58;;;;;;;1.75;1.40;;;13.90;99.90;;;;;;5067873;28;20557;-76
2022/09/27 09:03:29;;;;;;;1.50;1.40;;;13.90;99.90;;;;;;5068895;28;20218;-77
2022/09/27 09:06:11;;;;;;;1.90;1.80;;;13.90;99.90;;;;;;5067402;28;20198;-76
2022/09/27 09:08:48;;;;;;;1.70;1.50;;;13.90;99.90;;;;;;5065819;28;20309;-76
2022/09/27 09:14:44;;;;;;;1.48;1.38;;;14.00;99.90;;;;;;5070274;28;20221;-77
2022/09/27 09:17:24;;;;;;;1.20;1.20;;;14.10;99.90;;;;;;5069433;28;20202;-76
2022/09/27 09:20:04;;;;;;;1.48;1.35;;;14.20;99.90;;;;;;5067253;28;20221;-77
2022/09/27 09:22:48;;;;;;;1.30;1.20;;;14.20;99.90;;;;;;5070275;28;20194;-78
2022/09/27 09:25:31;;;;;;;1.45;1.35;;;14.20;99.90;;;;;;5067167;28;20579;-76
2022/09/27 09:28:12;;;;;;;1.38;1.30;;;14.20;99.90;;;;;;5067690;28;20202;-76
2022/09/27 09:30:54;;;;;;;1.40;1.30;;;14.30;99.90;;;;;;5065172;28;20224;-76
2022/09/27 09:33:27;;;;;;;1.48;1.38;;;14.40;99.90;;;;;;5066671;28;20735;-76
2022/09/27 09:36:00;;;;;;;1.58;1.48;;;14.50;99.90;;;;;;5067724;28;20249;-76
2022/09/27 09:38:36;;;;;;;1.38;1.27;;;14.50;99.90;;;;;;5065493;28;20291;-76
2022/09/27 09:41:07;;;;;;;1.10;1.00;;;14.50;99.90;;;;;;5071772;28;20209;-76
2022/09/27 09:43:40;;;;;;;1.15;1.15;;;14.60;99.90;;;;;;5071939;28;20222;-75
2022/09/27 09:46:13;;;;;;;1.40;1.30;;;14.70;99.90;;;;;;5065067;28;20348;-75
2022/09/27 09:48:45;;;;;;;1.42;1.30;;;14.80;99.90;;;;;;5061990;28;20230;-77
2022/09/27 09:51:21;;;;;;;1.45;1.35;;;14.90;99.90;;;;;;5063781;28;20291;-76
2022/09/27 09:53:54;;;;;;;1.40;1.30;;;14.90;99.90;;;;;;5065694;28;20222;-76
2022/09/27 09:56:25;;;;;;;1.25;1.20;;;15.00;99.90;;;;;;5066287;28;20235;-76
2022/09/27 09:58:56;;;;;;;1.17;1.10;;;15.10;99.90;;;;;;5062907;28;20556;-76
2022/09/27 10:01:28;;;;;;;1.70;1.60;;;15.30;99.90;;;;;;5066874;28;20222;-76
2022/09/27 10:03:56;;;;;;;1.73;1.33;;;15.50;99.90;;;;;;5065464;28;20230;-77
2022/09/27 10:06:25;;;;;;;1.50;1.10;;;15.60;99.90;;;;;;5066193;28;20190;-76
2022/09/27 10:08:54;;;;;;;2.05;1.40;;;15.60;99.90;;;;;;5065311;28;20213;-76
2022/09/27 10:11:25;;;;;;;1.02;1.02;;;15.80;99.90;;;;;;5066178;28;20217;-76
2022/09/27 10:13:55;;;;;;;1.10;1.10;;;15.90;99.90;;;;;;5065391;28;20218;-77
2022/09/27 10:16:27;;;;;;;1.20;1.20;;;16.00;99.90;;;;;;5065874;28;20513;-76
2022/09/27 10:19:00;;;;;;;1.60;1.50;;;16.10;99.90;;;;;;5065300;28;20353;-75
2022/09/27 10:21:29;;;;;;;1.23;1.20;;;16.30;99.90;;;;;;5066536;28;20704;-76
2022/09/27 10:24:08;;;;;;;1.42;1.33;;;16.30;99.90;;;;;;5063461;28;20722;-76
2022/09/27 10:26:37;;;;;;;1.30;1.20;;;16.60;99.90;;;;;;5062982;28;20213;-77
2022/09/27 10:29:32;;;;;;;1.42;1.33;;;16.70;99.90;;;;;;5064128;28;20276;-77
2022/09/27 10:32:04;;;;;;;1.50;1.40;;;17.00;99.90;;;;;;5041549;28;20202;-76
2022/09/27 10:34:33;;;;;;;1.45;1.20;;;17.70;99.90;;;;;;5066781;28;20229;-77
2022/09/27 10:37:16;;;;;;;1.67;1.40;;;18.00;99.90;;;;;;5071464;28;20190;-76
2022/09/27 10:39:44;;;;;;;1.40;1.30;;;18.40;99.90;;;;;;5070956;28;20216;-76
2022/09/27 10:42:23;;;;;;;1.40;1.30;;;18.70;99.90;;;;;;5060024;28;20724;-77
2022/09/27 10:44:52;;;;;;;1.25;1.25;;;18.80;99.90;;;;;;5062896;28;20222;-77
2022/09/27 10:47:25;;;;;;;1.50;1.40;;;18.60;99.90;;;;;;5062372;28;20286;-77
2022/09/27 10:50:02;;;;;;;1.30;1.20;;;18.30;99.90;;;;;;5062861;28;20589;-76
2022/09/27 10:52:29;;;;;;;1.15;1.05;;;18.30;99.90;;;;;;5060028;28;20197;-76
2022/09/27 10:54:58;;;;;;;2.25;1.20;;;18.70;99.90;;;;;;5063842;28;20210;-77
2022/09/27 10:57:27;;;;;;;1.48;1.38;;;19.20;99.90;;;;;;5065519;28;20685;-76
2022/09/27 10:59:59;;;;;;;1.60;1.02;;;19.80;99.90;;;;;;5058419;28;20435;-77
2022/09/27 11:02:33;;;;;;;1.55;1.25;;;20.30;99.90;;;;;;5064108;28;20194;-77
2022/09/27 11:05:09;;;;;;;1.10;1.00;;;20.50;99.90;;;;;;5056910;28;20218;-76
2022/09/27 11:07:38;;;;;;;1.77;1.13;;;20.70;99.90;;;;;;5061865;28;20194;-76
2022/09/27 11:10:26;;;;;;;1.13;1.13;;;20.80;99.90;;;;;;5059399;28;20221;-77
2022/09/27 11:13:13;;;;;;;0.90;0.90;;;20.70;99.90;;;;;;5060662;28;20194;-77
2022/09/27 11:15:54;;;;;;;1.02;0.98;;;20.70;99.90;;;;;;5064395;28;20198;-77
2022/09/27 11:18:31;;;;;;;2.15;0.73;;;20.70;99.90;;;;;;5069780;28;20429;-78
2022/09/27 11:21:07;;;;;;;0.98;0.98;;;20.30;99.90;;;;;;5084775;28;20206;-77
2022/09/27 11:23:47;;;;;;;1.02;1.00;;;19.80;99.90;;;;;;5079249;28;20225;-78
2022/09/27 11:26:32;;;;;;;0.93;0.93;;;19.70;99.90;;;;;;5083690;28;20222;-78
2022/09/27 11:29:13;;;;;;;0.90;0.90;;;19.50;99.90;;;;;;5082194;28;20627;-76
2022/09/27 11:31:46;;;;;;;0.80;0.80;;;19.40;99.90;;;;;;5077261;28;20655;-76
2022/09/27 11:34:37;;;;;;;0.73;0.73;;;19.30;99.90;;;;;;5096309;28;20213;-76
2022/09/27 11:37:17;;;;;;;0.80;0.80;;;19.30;99.90;;;;;;5087703;28;20190;-78
2022/09/27 11:40:03;;;;;;;0.93;0.93;;;19.30;99.90;;;;;;5085285;28;20253;-77
2022/09/27 11:42:52;;;;;;;1.40;0.90;;;19.40;99.90;;;;;;5085816;28;20224;-77
2022/09/27 11:45:36;;;;;;;0.90;0.90;;;19.70;99.90;;;;;;5080050;28;20225;-76
2022/09/27 11:48:14;;;;;;;1.00;1.00;;;19.90;99.90;;;;;;5076681;28;20301;-76
2022/09/27 11:51:18;;;;;;;1.20;1.10;;;19.80;99.90;;;;;;5059319;28;20224;-77
2022/09/27 11:54:02;;;;;;;0.90;0.90;;;19.70;99.90;;;;;;5059547;28;20228;-76
2022/09/27 11:56:40;;;;;;;1.00;1.00;;;19.70;99.90;;;;;;5061290;28;20209;-77
2022/09/27 11:59:33;;;;;;;1.20;1.10;;;19.90;99.90;;;;;;5058272;28;20224;-76
2022/09/27 12:02:12;;;;;;;1.02;1.00;;;20.00;99.90;;;;;;5058900;28;20199;-77
2022/09/27 12:05:07;;;;;;;0.90;0.90;;;20.00;99.90;;;;;;5059203;28;20214;-76
2022/09/27 12:07:42;;;;;;;1.00;0.90;;;19.70;99.90;;;;;;5052883;28;20272;-77
2022/09/27 12:10:14;;;;;;;1.08;0.98;;;19.60;99.90;;;;;;5067067;28;20229;-76
2022/09/27 12:12:44;;;;;;;1.35;1.25;;;19.30;99.90;;;;;;5058988;28;20235;-76
2022/09/27 12:15:16;;;;;;;0.90;0.90;;;18.90;99.90;;;;;;5060147;28;20197;-76
2022/09/27 12:17:48;;;;;;;1.13;1.13;;;18.80;99.90;;;;;;5059140;28;20812;-75
2022/09/27 12:20:21;;;;;;;0.80;0.80;;;18.80;99.90;;;;;;5060386;28;20221;-75
2022/09/27 12:22:57;;;;;;;1.02;1.02;;;18.70;99.90;;;;;;5060108;28;20194;-77
2022/09/27 12:25:28;;;;;;;1.08;0.90;;;18.90;99.90;;;;;;5060971;28;20774;-76
2022/09/27 12:28:01;;;;;;;1.65;1.02;;;19.10;99.90;;;;;;5059742;28;20715;-78
2022/09/27 12:30:31;;;;;;;1.00;1.00;;;19.30;99.90;;;;;;5074439;28;20206;-77
2022/09/27 12:33:10;;;;;;;1.70;0.90;;;19.50;99.90;;;;;;5061491;28;20205;-77
2022/09/27 12:35:46;;;;;;;1.25;1.15;;;19.70;99.90;;;;;;5058072;28;20212;-77
2022/09/27 12:38:18;;;;;;;1.63;1.45;;;19.90;99.90;;;;;;5057932;28;20220;-76
2022/09/27 12:40:49;;;;;;;1.27;1.17;;;20.00;99.90;;;;;;5062193;28;20225;-76
2022/09/27 12:43:20;;;;;;;1.00;1.00;;;19.80;99.90;;;;;;5062254;28;20217;-76
2022/09/27 12:46:00;;;;;;;1.88;1.20;;;19.70;99.90;;;;;;5063968;28;20330;-77
2022/09/27 12:48:37;;;;;;;1.38;1.15;;;19.70;99.90;;;;;;5063397;28;20217;-76
2022/09/27 12:51:09;;;;;;;1.00;1.00;;;19.80;99.90;;;;;;5063962;28;20218;-78
2022/09/27 12:53:58;;;;;;;1.48;1.38;;;19.90;99.90;;;;;;5061372;28;20225;-76
2022/09/27 12:56:37;;;;;;;1.75;1.50;;;20.20;99.90;;;;;;5063691;28;20190;-76
2022/09/27 12:59:34;;;;;;;1.30;1.00;;;20.40;99.90;;;;;;5062412;28;20633;-76
2022/09/27 13:02:31;;;;;;;0.98;0.98;;;20.30;99.90;;;;;;5062888;28;20256;-77
2022/09/27 13:05:17;;;;;;;1.00;1.00;;;20.30;99.90;;;;;;5064314;28;20688;-76
2022/09/27 13:07:54;;;;;;;1.10;1.05;;;20.20;99.90;;;;;;5060140;28;20286;-76
2022/09/27 13:10:48;;;;;;;0.90;0.90;;;20.30;99.90;;;;;;5063268;28;20237;-76
2022/09/27 13:13:18;;;;;;;0.98;0.90;;;20.50;99.90;;;;;;5067897;28;21025;-76
2022/09/27 13:15:47;;;;;;;1.10;1.00;;;20.70;99.90;;;;;;5064066;28;20226;-76
2022/09/27 13:18:31;;;;;;;1.40;0.95;;;21.00;99.90;;;;;;5060779;28;20214;-76
2022/09/27 13:20:58;;;;;;;0.95;0.95;;;21.30;99.90;;;;;;5063813;28;20313;-77